»·PEaware :: N950CA KCRQ-KHND

N950CA :: KCRQ-KHND

FLIGHT INFORMATION

Flight Status: Arrived
Operator: Privately registered:
United States
More flights under this callsign
Pilot: Jerrivel R. (26020)
Aircraft: BEECH AIRCRAFT BONANZA
(BE35)
More flights by this aircraft type
Origin: KCRQ McClellan-Palomar
United States
Destination: KHND Henderson
United States
More flights between these airports :: More routes between these airports
Route:
File this flight plan on PilotEdge
Remarks:
Altitude:
(Current/Filed)
9,500ft
Speed:
(Current/Filed)
0kts
Departed: 07-Dec-21 01:09 PM
Arrived: 07-Dec-21 02:54 PM
Distance/Time
Traveled:
201nm/1:44
Distance/Time
To Go:
Arrived

Flight Plot

Page will automatically refresh every two minutes.

Flight plan parsing failed; only flown route is shown


Map Options




Map Legend


Flown Route
Filed Route
Departure Airport
Arrival Airport
Navaid (VOR, NDB)
Fix

Horizontal Profiles

Position Reports

Time Latitude Longitude Heading Altitude Ground
Speed
07-Dec-21 12:54 33.126242 -117.281828 79 334ft 0kts
07-Dec-21 12:55 33.126243 -117.281825 79 334ft 0kts
07-Dec-21 12:56 33.126243 -117.281823 79 334ft 0kts
07-Dec-21 12:57 33.126602 -117.282264 342 334ft 6kts
07-Dec-21 12:58 33.127266 -117.279787 79 334ft 10kts
07-Dec-21 12:59 33.127924 -117.275867 77 334ft 12kts
07-Dec-21 13:00 33.128277 -117.272086 75 334ft 3kts
07-Dec-21 13:01 33.128279 -117.272077 72 334ft 0kts
07-Dec-21 13:02 33.128280 -117.272074 72 334ft 0kts
07-Dec-21 13:03 33.128282 -117.272068 72 334ft 0kts
07-Dec-21 13:04 33.128283 -117.272063 72 334ft 0kts
07-Dec-21 13:05 33.128284 -117.272060 72 334ft 0kts
07-Dec-21 13:06 33.128489 -117.272158 325 334ft 3kts
07-Dec-21 13:07 33.128680 -117.272270 350 334ft 0kts
07-Dec-21 13:08 33.128247 -117.280158 258 355ft 90kts
07-Dec-21 13:09 33.123688 -117.314732 284 1466ft 111kts
07-Dec-21 13:10 33.146194 -117.313775 50 2646ft 106kts
07-Dec-21 13:11 33.161779 -117.282321 60 4123ft 112kts
07-Dec-21 13:12 33.184546 -117.259626 14 5531ft 116kts
07-Dec-21 13:13 33.215143 -117.253103 8 6656ft 105kts
07-Dec-21 13:14 33.245603 -117.244859 9 7376ft 116kts
07-Dec-21 13:15 33.275134 -117.228931 15 8118ft 117kts
07-Dec-21 13:16 33.306771 -117.219039 10 8777ft 118kts
07-Dec-21 13:17 33.338740 -117.209293 10 9366ft 119kts
07-Dec-21 13:18 33.374039 -117.197279 11 9502ft 145kts
07-Dec-21 13:19 33.416106 -117.183590 11 9500ft 158kts
07-Dec-21 13:20 33.458361 -117.170046 11 9499ft 157kts
07-Dec-21 13:21 33.500823 -117.156250 11 9497ft 154kts
07-Dec-21 13:22 33.541109 -117.143224 10 9494ft 148kts
07-Dec-21 13:23 33.581516 -117.130344 6 9512ft 153kts
07-Dec-21 13:24 33.624226 -117.127746 356 9512ft 157kts
07-Dec-21 13:25 33.669449 -117.129391 352 9505ft 160kts
07-Dec-21 13:26 33.713249 -117.132887 353 9505ft 156kts
07-Dec-21 13:27 33.756563 -117.135687 353 9514ft 158kts
07-Dec-21 13:28 33.802486 -117.138763 353 9503ft 162kts
07-Dec-21 13:29 33.846480 -117.141625 353 9506ft 156kts
07-Dec-21 13:30 33.889798 -117.144378 353 9510ft 155kts
07-Dec-21 13:31 33.933294 -117.146241 356 9505ft 156kts
07-Dec-21 13:32 33.977016 -117.137248 10 9514ft 167kts
07-Dec-21 13:33 34.023637 -117.136316 356 9504ft 163kts
07-Dec-21 13:34 34.067889 -117.138071 353 9505ft 157kts
07-Dec-21 13:35 34.104252 -117.140463 353 9508ft 157kts
07-Dec-21 14:00 34.288577 -117.047082 41 9513ft 163kts
07-Dec-21 14:01 34.320944 -117.008666 41 9513ft 163kts
07-Dec-21 14:02 34.353347 -116.970184 41 9517ft 167kts
07-Dec-21 14:03 34.387606 -116.929668 41 9506ft 170kts
07-Dec-21 14:04 34.420967 -116.890144 41 9503ft 165kts
07-Dec-21 14:05 34.453727 -116.851257 41 9503ft 165kts
07-Dec-21 14:06 34.487939 -116.812955 39 9507ft 166kts
07-Dec-21 14:07 34.522541 -116.776697 37 9509ft 164kts
07-Dec-21 14:08 34.557680 -116.740183 37 9513ft 168kts
07-Dec-21 14:09 34.593862 -116.702488 39 9508ft 169kts
07-Dec-21 14:10 34.628389 -116.664110 41 9508ft 168kts
07-Dec-21 14:11 34.660037 -116.621529 45 9507ft 167kts
07-Dec-21 14:12 34.693067 -116.582639 40 9514ft 166kts
07-Dec-21 14:13 34.727220 -116.543385 40 9513ft 171kts
07-Dec-21 14:14 34.762493 -116.503036 40 9506ft 173kts
07-Dec-21 14:15 34.797568 -116.462863 40 9506ft 168kts
07-Dec-21 14:16 34.830882 -116.424510 40 9548ft 163kts
07-Dec-21 14:17 34.864089 -116.386517 38 9543ft 165kts
07-Dec-21 14:18 34.898882 -116.349164 38 9540ft 165kts
07-Dec-21 14:19 34.933106 -116.312323 38 9543ft 166kts
07-Dec-21 14:20 34.968261 -116.274541 38 9541ft 167kts
07-Dec-21 14:21 35.002372 -116.236780 39 9540ft 164kts
07-Dec-21 14:22 35.035660 -116.198764 40 9552ft 163kts
07-Dec-21 14:23 35.068797 -116.160528 40 9545ft 164kts
07-Dec-21 14:24 35.102117 -116.122087 40 9541ft 164kts
07-Dec-21 14:25 35.135425 -116.083988 39 9538ft 164kts
07-Dec-21 14:26 35.169067 -116.046401 39 9549ft 163kts
07-Dec-21 14:27 35.202599 -116.008921 39 9546ft 164kts
07-Dec-21 14:28 35.236294 -115.971303 39 9547ft 163kts
07-Dec-21 14:29 35.269845 -115.933840 39 9553ft 163kts
07-Dec-21 14:30 35.303549 -115.896213 39 9549ft 163kts
07-Dec-21 14:31 35.337192 -115.858632 39 9547ft 164kts
07-Dec-21 14:32 35.370840 -115.821042 39 9544ft 164kts
07-Dec-21 14:33 35.404477 -115.783456 39 9544ft 164kts
07-Dec-21 14:34 35.438116 -115.745838 39 9541ft 163kts
07-Dec-21 14:35 35.471631 -115.708336 39 9544ft 162kts
07-Dec-21 14:36 35.505030 -115.670947 39 9542ft 163kts
07-Dec-21 14:37 35.538839 -115.633277 37 9256ft 165kts
07-Dec-21 14:38 35.572051 -115.594959 39 8626ft 160kts
07-Dec-21 14:39 35.604889 -115.559721 39 8214ft 150kts
07-Dec-21 14:40 35.634214 -115.522328 46 7770ft 153kts
07-Dec-21 14:41 35.664070 -115.484446 37 7249ft 155kts
07-Dec-21 14:42 35.696846 -115.450203 42 6745ft 155kts
07-Dec-21 14:43 35.727603 -115.413764 38 6304ft 152kts
07-Dec-21 14:44 35.759127 -115.379465 39 5948ft 148kts
07-Dec-21 14:45 35.788745 -115.343627 47 5573ft 151kts
07-Dec-21 14:46 35.820631 -115.309666 43 5179ft 151kts
07-Dec-21 14:47 35.851386 -115.273472 39 4717ft 153kts
07-Dec-21 14:48 35.882865 -115.238873 48 4329ft 150kts
07-Dec-21 14:49 35.902608 -115.201531 63 3970ft 117kts
07-Dec-21 14:50 35.919678 -115.167307 56 3776ft 114kts
07-Dec-21 14:51 35.939786 -115.138814 27 3122ft 104kts
07-Dec-21 14:52 35.964000 -115.135562 3 2511ft 79kts
07-Dec-21 14:53 35.970796 -115.135833 290 2495ft 6kts
07-Dec-21 14:54 35.970827 -115.136493 273 2495ft 0kts
07-Dec-21 14:55 35.970471 -115.136552 177 2495ft 4kts
07-Dec-21 14:56 35.970872 -115.137440 272 2495ft 0kts
07-Dec-21 14:57 35.970872 -115.137442 272 2495ft 0kts
07-Dec-21 14:59 35.970872 -115.137442 272 2495ft 0kts

Navigation Log

Ident Type
Flight plan parsing failed, navigation log unavailable